sensor_id;sensor_type;location;lat;lon;timestamp;P1;durP1;ratioP1;P2;durP2;ratioP2
34072;SDS011;20346;52.702;16.886;2024-03-02T00:01:24;91.90;;;55.80;;
34072;SDS011;20346;52.702;16.886;2024-03-02T00:03:49;85.00;;;51.90;;
34072;SDS011;20346;52.702;16.886;2024-03-02T00:06:15;94.60;;;56.00;;
34072;SDS011;20346;52.702;16.886;2024-03-02T00:08:46;88.30;;;53.60;;
34072;SDS011;20346;52.702;16.886;2024-03-02T00:11:12;95.00;;;55.00;;
34072;SDS011;20346;52.702;16.886;2024-03-02T00:16:04;91.00;;;53.00;;
34072;SDS011;20346;52.702;16.886;2024-03-02T00:18:31;94.70;;;55.10;;
34072;SDS011;20346;52.702;16.886;2024-03-02T00:20:58;93.00;;;55.70;;
34072;SDS011;20346;52.702;16.886;2024-03-02T00:23:31;92.60;;;55.70;;
34072;SDS011;20346;52.702;16.886;2024-03-02T00:25:58;93.70;;;56.00;;
34072;SDS011;20346;52.702;16.886;2024-03-02T00:28:33;100.70;;;57.60;;
34072;SDS011;20346;52.702;16.886;2024-03-02T00:31:06;91.90;;;55.30;;
34072;SDS011;20346;52.702;16.886;2024-03-02T00:33:34;93.50;;;56.30;;
34072;SDS011;20346;52.702;16.886;2024-03-02T00:36:04;98.10;;;61.10;;
34072;SDS011;20346;52.702;16.886;2024-03-02T00:38:31;104.50;;;61.70;;
34072;SDS011;20346;52.702;16.886;2024-03-02T00:41:07;97.80;;;59.10;;
34072;SDS011;20346;52.702;16.886;2024-03-02T00:46:15;109.50;;;63.90;;
34072;SDS011;20346;52.702;16.886;2024-03-02T00:48:48;111.90;;;64.20;;
34072;SDS011;20346;52.702;16.886;2024-03-02T00:51:21;107.10;;;64.00;;
34072;SDS011;20346;52.702;16.886;2024-03-02T00:53:48;113.70;;;64.40;;
34072;SDS011;20346;52.702;16.886;2024-03-02T00:56:14;106.80;;;64.80;;
34072;SDS011;20346;52.702;16.886;2024-03-02T00:58:40;122.80;;;69.10;;
34072;SDS011;20346;52.702;16.886;2024-03-02T01:01:09;122.00;;;66.50;;
34072;SDS011;20346;52.702;16.886;2024-03-02T01:03:34;122.10;;;66.00;;
34072;SDS011;20346;52.702;16.886;2024-03-02T01:06:00;136.10;;;72.80;;
34072;SDS011;20346;52.702;16.886;2024-03-02T01:08:26;122.60;;;66.90;;
34072;SDS011;20346;52.702;16.886;2024-03-02T01:10:52;124.20;;;68.50;;
34072;SDS011;20346;52.702;16.886;2024-03-02T01:13:17;125.00;;;68.40;;
34072;SDS011;20346;52.702;16.886;2024-03-02T01:15:43;124.50;;;69.80;;
34072;SDS011;20346;52.702;16.886;2024-03-02T01:18:09;138.20;;;69.60;;
34072;SDS011;20346;52.702;16.886;2024-03-02T01:20:34;133.20;;;71.50;;
34072;SDS011;20346;52.702;16.886;2024-03-02T01:23:00;131.90;;;70.20;;
34072;SDS011;20346;52.702;16.886;2024-03-02T01:25:26;120.00;;;64.80;;
34072;SDS011;20346;52.702;16.886;2024-03-02T01:27:51;127.30;;;68.90;;
34072;SDS011;20346;52.702;16.886;2024-03-02T01:30:17;129.30;;;70.60;;
34072;SDS011;20346;52.702;16.886;2024-03-02T01:32:42;132.90;;;68.50;;
34072;SDS011;20346;52.702;16.886;2024-03-02T01:35:08;129.70;;;71.00;;
34072;SDS011;20346;52.702;16.886;2024-03-02T01:37:34;122.30;;;66.70;;
34072;SDS011;20346;52.702;16.886;2024-03-02T01:40:00;130.60;;;69.30;;
34072;SDS011;20346;52.702;16.886;2024-03-02T01:42:25;132.30;;;71.80;;
34072;SDS011;20346;52.702;16.886;2024-03-02T01:44:51;132.30;;;67.50;;
34072;SDS011;20346;52.702;16.886;2024-03-02T01:47:17;131.40;;;70.40;;
34072;SDS011;20346;52.702;16.886;2024-03-02T01:49:43;129.60;;;67.60;;
34072;SDS011;20346;52.702;16.886;2024-03-02T01:52:08;135.20;;;70.40;;
34072;SDS011;20346;52.702;16.886;2024-03-02T01:54:34;132.70;;;69.30;;
34072;SDS011;20346;52.702;16.886;2024-03-02T01:57:00;127.40;;;67.70;;
34072;SDS011;20346;52.702;16.886;2024-03-02T01:59:26;135.60;;;69.70;;
34072;SDS011;20346;52.702;16.886;2024-03-02T02:01:52;137.00;;;68.90;;
34072;SDS011;20346;52.702;16.886;2024-03-02T02:04:17;135.20;;;67.90;;
34072;SDS011;20346;52.702;16.886;2024-03-02T02:06:46;131.20;;;69.40;;
34072;SDS011;20346;52.702;16.886;2024-03-02T02:09:11;128.90;;;67.80;;
34072;SDS011;20346;52.702;16.886;2024-03-02T02:11:37;133.20;;;68.00;;
34072;SDS011;20346;52.702;16.886;2024-03-02T02:14:03;122.70;;;66.00;;
34072;SDS011;20346;52.702;16.886;2024-03-02T02:16:28;134.50;;;67.40;;
34072;SDS011;20346;52.702;16.886;2024-03-02T02:18:54;118.60;;;64.50;;
34072;SDS011;20346;52.702;16.886;2024-03-02T02:21:28;120.20;;;65.20;;
34072;SDS011;20346;52.702;16.886;2024-03-02T02:23:53;114.30;;;63.20;;
34072;SDS011;20346;52.702;16.886;2024-03-02T02:26:19;122.00;;;63.90;;
34072;SDS011;20346;52.702;16.886;2024-03-02T02:28:44;121.00;;;65.50;;
34072;SDS011;20346;52.702;16.886;2024-03-02T02:31:13;122.70;;;63.20;;
34072;SDS011;20346;52.702;16.886;2024-03-02T02:33:42;122.40;;;65.40;;
34072;SDS011;20346;52.702;16.886;2024-03-02T02:36:08;114.60;;;63.40;;
34072;SDS011;20346;52.702;16.886;2024-03-02T02:38:36;126.60;;;66.20;;
34072;SDS011;20346;52.702;16.886;2024-03-02T02:41:05;118.20;;;61.90;;
34072;SDS011;20346;52.702;16.886;2024-03-02T02:43:31;108.40;;;60.00;;
34072;SDS011;20346;52.702;16.886;2024-03-02T02:45:56;110.20;;;60.10;;
34072;SDS011;20346;52.702;16.886;2024-03-02T02:48:22;110.90;;;60.40;;
34072;SDS011;20346;52.702;16.886;2024-03-02T02:50:47;113.50;;;61.60;;
34072;SDS011;20346;52.702;16.886;2024-03-02T02:53:13;109.70;;;60.10;;
34072;SDS011;20346;52.702;16.886;2024-03-02T02:55:39;112.80;;;61.70;;
34072;SDS011;20346;52.702;16.886;2024-03-02T02:58:08;110.00;;;61.70;;
34072;SDS011;20346;52.702;16.886;2024-03-02T03:00:34;109.40;;;61.30;;
34072;SDS011;20346;52.702;16.886;2024-03-02T03:03:01;115.10;;;60.70;;
34072;SDS011;20346;52.702;16.886;2024-03-02T03:05:27;112.20;;;62.00;;
34072;SDS011;20346;52.702;16.886;2024-03-02T03:07:53;117.10;;;62.60;;
34072;SDS011;20346;52.702;16.886;2024-03-02T03:10:18;115.00;;;63.50;;
34072;SDS011;20346;52.702;16.886;2024-03-02T03:12:47;107.00;;;60.50;;
34072;SDS011;20346;52.702;16.886;2024-03-02T03:15:13;122.60;;;61.60;;
34072;SDS011;20346;52.702;16.886;2024-03-02T03:17:39;125.90;;;63.60;;
34072;SDS011;20346;52.702;16.886;2024-03-02T03:20:05;117.70;;;63.80;;
34072;SDS011;20346;52.702;16.886;2024-03-02T03:22:34;109.70;;;61.00;;
34072;SDS011;20346;52.702;16.886;2024-03-02T03:25:04;107.80;;;61.20;;
34072;SDS011;20346;52.702;16.886;2024-03-02T03:27:30;117.60;;;60.60;;
34072;SDS011;20346;52.702;16.886;2024-03-02T03:29:57;111.70;;;62.30;;
34072;SDS011;20346;52.702;16.886;2024-03-02T03:32:22;112.40;;;60.50;;
34072;SDS011;20346;52.702;16.886;2024-03-02T03:34:48;107.90;;;60.70;;
34072;SDS011;20346;52.702;16.886;2024-03-02T03:37:14;108.90;;;61.50;;
34072;SDS011;20346;52.702;16.886;2024-03-02T03:39:40;116.70;;;59.90;;
34072;SDS011;20346;52.702;16.886;2024-03-02T03:42:06;110.30;;;60.30;;
34072;SDS011;20346;52.702;16.886;2024-03-02T03:44:32;107.80;;;59.40;;
34072;SDS011;20346;52.702;16.886;2024-03-02T03:46:58;100.90;;;57.20;;
34072;SDS011;20346;52.702;16.886;2024-03-02T03:49:26;101.80;;;57.20;;
34072;SDS011;20346;52.702;16.886;2024-03-02T03:51:51;105.00;;;57.20;;
34072;SDS011;20346;52.702;16.886;2024-03-02T03:54:17;102.20;;;58.50;;
34072;SDS011;20346;52.702;16.886;2024-03-02T03:56:42;106.70;;;57.50;;
34072;SDS011;20346;52.702;16.886;2024-03-02T03:59:08;100.20;;;56.80;;
34072;SDS011;20346;52.702;16.886;2024-03-02T04:01:33;96.30;;;56.20;;
34072;SDS011;20346;52.702;16.886;2024-03-02T04:03:59;97.30;;;55.60;;
34072;SDS011;20346;52.702;16.886;2024-03-02T04:06:24;101.50;;;55.80;;
34072;SDS011;20346;52.702;16.886;2024-03-02T04:08:52;94.20;;;55.00;;
34072;SDS011;20346;52.702;16.886;2024-03-02T04:11:18;94.60;;;54.70;;
34072;SDS011;20346;52.702;16.886;2024-03-02T04:13:43;93.70;;;53.80;;
34072;SDS011;20346;52.702;16.886;2024-03-02T04:16:09;97.90;;;56.00;;
34072;SDS011;20346;52.702;16.886;2024-03-02T04:18:34;95.80;;;54.50;;
34072;SDS011;20346;52.702;16.886;2024-03-02T04:21:00;99.90;;;55.70;;
34072;SDS011;20346;52.702;16.886;2024-03-02T04:23:28;89.30;;;54.40;;
34072;SDS011;20346;52.702;16.886;2024-03-02T04:25:54;96.90;;;54.50;;
34072;SDS011;20346;52.702;16.886;2024-03-02T04:28:19;92.70;;;53.50;;
34072;SDS011;20346;52.702;16.886;2024-03-02T04:30:45;96.70;;;54.70;;
34072;SDS011;20346;52.702;16.886;2024-03-02T04:33:10;91.10;;;50.40;;
34072;SDS011;20346;52.702;16.886;2024-03-02T04:35:36;101.10;;;54.60;;
34072;SDS011;20346;52.702;16.886;2024-03-02T04:38:02;85.20;;;51.30;;
34072;SDS011;20346;52.702;16.886;2024-03-02T04:40:28;95.80;;;53.30;;
34072;SDS011;20346;52.702;16.886;2024-03-02T04:42:53;90.50;;;52.90;;
34072;SDS011;20346;52.702;16.886;2024-03-02T04:45:19;94.70;;;51.70;;
34072;SDS011;20346;52.702;16.886;2024-03-02T04:47:45;89.30;;;51.00;;
34072;SDS011;20346;52.702;16.886;2024-03-02T04:50:10;92.40;;;51.70;;
34072;SDS011;20346;52.702;16.886;2024-03-02T04:52:36;88.80;;;50.50;;
34072;SDS011;20346;52.702;16.886;2024-03-02T04:55:02;95.50;;;51.80;;
34072;SDS011;20346;52.702;16.886;2024-03-02T04:57:46;94.90;;;52.80;;
34072;SDS011;20346;52.702;16.886;2024-03-02T05:00:13;95.10;;;54.90;;
34072;SDS011;20346;52.702;16.886;2024-03-02T05:02:38;86.90;;;49.80;;
34072;SDS011;20346;52.702;16.886;2024-03-02T05:05:04;95.90;;;52.40;;
34072;SDS011;20346;52.702;16.886;2024-03-02T05:07:30;92.20;;;51.30;;
34072;SDS011;20346;52.702;16.886;2024-03-02T05:09:55;89.40;;;51.20;;
34072;SDS011;20346;52.702;16.886;2024-03-02T05:12:21;96.10;;;52.30;;
34072;SDS011;20346;52.702;16.886;2024-03-02T05:15:05;93.40;;;54.90;;
34072;SDS011;20346;52.702;16.886;2024-03-02T05:17:32;86.40;;;48.90;;
34072;SDS011;20346;52.702;16.886;2024-03-02T05:19:58;96.10;;;52.10;;
34072;SDS011;20346;52.702;16.886;2024-03-02T05:22:23;82.30;;;49.20;;
34072;SDS011;20346;52.702;16.886;2024-03-02T05:24:49;95.30;;;51.50;;
34072;SDS011;20346;52.702;16.886;2024-03-02T05:27:15;93.60;;;51.90;;
34072;SDS011;20346;52.702;16.886;2024-03-02T05:29:40;93.40;;;49.80;;
34072;SDS011;20346;52.702;16.886;2024-03-02T05:32:06;87.30;;;48.70;;
34072;SDS011;20346;52.702;16.886;2024-03-02T05:34:32;87.00;;;49.60;;
34072;SDS011;20346;52.702;16.886;2024-03-02T05:37:00;89.90;;;50.70;;
34072;SDS011;20346;52.702;16.886;2024-03-02T05:39:25;89.70;;;48.60;;
34072;SDS011;20346;52.702;16.886;2024-03-02T05:41:50;89.90;;;50.40;;
34072;SDS011;20346;52.702;16.886;2024-03-02T05:44:16;80.80;;;47.40;;
34072;SDS011;20346;52.702;16.886;2024-03-02T05:46:43;90.50;;;48.30;;
34072;SDS011;20346;52.702;16.886;2024-03-02T05:49:09;84.10;;;48.20;;
34072;SDS011;20346;52.702;16.886;2024-03-02T05:51:35;90.40;;;48.50;;
34072;SDS011;20346;52.702;16.886;2024-03-02T05:54:01;94.40;;;47.20;;
34072;SDS011;20346;52.702;16.886;2024-03-02T05:56:27;86.10;;;48.20;;
34072;SDS011;20346;52.702;16.886;2024-03-02T05:58:52;86.90;;;48.30;;
34072;SDS011;20346;52.702;16.886;2024-03-02T06:01:36;84.80;;;47.20;;
34072;SDS011;20346;52.702;16.886;2024-03-02T06:04:02;96.00;;;49.90;;
34072;SDS011;20346;52.702;16.886;2024-03-02T06:06:28;84.70;;;47.50;;
34072;SDS011;20346;52.702;16.886;2024-03-02T06:08:53;83.70;;;48.00;;
34072;SDS011;20346;52.702;16.886;2024-03-02T06:11:19;89.60;;;49.80;;
34072;SDS011;20346;52.702;16.886;2024-03-02T06:13:44;90.50;;;49.10;;
34072;SDS011;20346;52.702;16.886;2024-03-02T06:16:10;78.60;;;44.30;;
34072;SDS011;20346;52.702;16.886;2024-03-02T06:18:36;92.90;;;49.40;;
34072;SDS011;20346;52.702;16.886;2024-03-02T06:21:02;84.90;;;47.30;;
34072;SDS011;20346;52.702;16.886;2024-03-02T06:23:28;87.50;;;47.70;;
34072;SDS011;20346;52.702;16.886;2024-03-02T06:25:53;84.90;;;47.40;;
34072;SDS011;20346;52.702;16.886;2024-03-02T06:28:19;88.50;;;51.00;;
34072;SDS011;20346;52.702;16.886;2024-03-02T06:30:44;88.40;;;50.90;;
34072;SDS011;20346;52.702;16.886;2024-03-02T06:33:10;90.00;;;49.70;;
34072;SDS011;20346;52.702;16.886;2024-03-02T06:35:36;79.40;;;46.90;;
34072;SDS011;20346;52.702;16.886;2024-03-02T06:38:02;87.20;;;45.90;;
34072;SDS011;20346;52.702;16.886;2024-03-02T06:40:27;81.40;;;45.80;;
34072;SDS011;20346;52.702;16.886;2024-03-02T06:42:53;86.80;;;45.80;;
34072;SDS011;20346;52.702;16.886;2024-03-02T06:45:18;80.90;;;46.10;;
34072;SDS011;20346;52.702;16.886;2024-03-02T06:47:44;79.50;;;46.20;;
34072;SDS011;20346;52.702;16.886;2024-03-02T06:50:09;75.50;;;43.70;;
34072;SDS011;20346;52.702;16.886;2024-03-02T06:52:35;88.00;;;47.80;;
34072;SDS011;20346;52.702;16.886;2024-03-02T06:55:01;83.70;;;45.00;;
34072;SDS011;20346;52.702;16.886;2024-03-02T06:57:29;74.70;;;44.30;;
34072;SDS011;20346;52.702;16.886;2024-03-02T06:59:54;74.30;;;42.70;;
34072;SDS011;20346;52.702;16.886;2024-03-02T07:02:23;73.40;;;43.90;;
34072;SDS011;20346;52.702;16.886;2024-03-02T07:05:10;76.30;;;43.30;;
34072;SDS011;20346;52.702;16.886;2024-03-02T07:07:36;75.00;;;42.40;;
34072;SDS011;20346;52.702;16.886;2024-03-02T07:10:03;75.50;;;43.70;;
34072;SDS011;20346;52.702;16.886;2024-03-02T07:12:34;74.00;;;42.70;;
34072;SDS011;20346;52.702;16.886;2024-03-02T07:15:02;72.60;;;42.90;;
34072;SDS011;20346;52.702;16.886;2024-03-02T07:17:28;76.20;;;44.20;;
34072;SDS011;20346;52.702;16.886;2024-03-02T07:19:54;75.50;;;42.50;;
34072;SDS011;20346;52.702;16.886;2024-03-02T07:22:20;72.60;;;43.70;;
34072;SDS011;20346;52.702;16.886;2024-03-02T07:24:46;66.30;;;41.10;;
34072;SDS011;20346;52.702;16.886;2024-03-02T07:27:12;72.70;;;43.30;;
34072;SDS011;20346;52.702;16.886;2024-03-02T07:29:39;70.60;;;41.20;;
34072;SDS011;20346;52.702;16.886;2024-03-02T07:32:05;70.90;;;41.60;;
34072;SDS011;20346;52.702;16.886;2024-03-02T07:34:32;73.70;;;42.20;;
34072;SDS011;20346;52.702;16.886;2024-03-02T07:37:00;70.00;;;41.30;;
34072;SDS011;20346;52.702;16.886;2024-03-02T07:39:26;69.20;;;42.00;;
34072;SDS011;20346;52.702;16.886;2024-03-02T07:41:52;63.40;;;40.70;;
34072;SDS011;20346;52.702;16.886;2024-03-02T07:44:18;62.70;;;38.30;;
34072;SDS011;20346;52.702;16.886;2024-03-02T07:46:44;54.90;;;37.30;;
34072;SDS011;20346;52.702;16.886;2024-03-02T07:49:20;67.00;;;40.80;;
34072;SDS011;20346;52.702;16.886;2024-03-02T07:51:46;61.20;;;39.20;;
34072;SDS011;20346;52.702;16.886;2024-03-02T07:54:11;64.80;;;39.10;;
34072;SDS011;20346;52.702;16.886;2024-03-02T07:56:37;60.20;;;38.10;;
34072;SDS011;20346;52.702;16.886;2024-03-02T07:59:03;58.90;;;38.40;;
34072;SDS011;20346;52.702;16.886;2024-03-02T08:01:30;58.80;;;38.70;;
34072;SDS011;20346;52.702;16.886;2024-03-02T08:03:57;56.10;;;37.80;;
34072;SDS011;20346;52.702;16.886;2024-03-02T08:06:26;58.60;;;38.00;;
34072;SDS011;20346;52.702;16.886;2024-03-02T08:08:58;55.50;;;35.60;;
34072;SDS011;20346;52.702;16.886;2024-03-02T08:11:30;57.60;;;37.70;;
34072;SDS011;20346;52.702;16.886;2024-03-02T08:13:56;59.70;;;38.10;;
34072;SDS011;20346;52.702;16.886;2024-03-02T08:16:22;61.10;;;38.90;;
34072;SDS011;20346;52.702;16.886;2024-03-02T08:18:49;64.30;;;37.70;;
34072;SDS011;20346;52.702;16.886;2024-03-02T08:21:15;62.20;;;38.80;;
34072;SDS011;20346;52.702;16.886;2024-03-02T08:23:42;65.20;;;39.20;;
34072;SDS011;20346;52.702;16.886;2024-03-02T08:26:08;60.50;;;36.50;;
34072;SDS011;20346;52.702;16.886;2024-03-02T08:28:34;60.70;;;38.00;;
34072;SDS011;20346;52.702;16.886;2024-03-02T08:31:02;54.80;;;35.40;;
34072;SDS011;20346;52.702;16.886;2024-03-02T08:33:28;60.10;;;37.40;;
34072;SDS011;20346;52.702;16.886;2024-03-02T08:35:54;53.30;;;34.30;;
34072;SDS011;20346;52.702;16.886;2024-03-02T08:38:19;56.10;;;35.60;;
34072;SDS011;20346;52.702;16.886;2024-03-02T08:40:45;61.40;;;35.40;;
34072;SDS011;20346;52.702;16.886;2024-03-02T08:43:11;53.70;;;36.20;;
34072;SDS011;20346;52.702;16.886;2024-03-02T08:45:37;51.10;;;34.20;;
34072;SDS011;20346;52.702;16.886;2024-03-02T08:48:05;49.50;;;33.60;;
34072;SDS011;20346;52.702;16.886;2024-03-02T08:50:33;48.50;;;32.10;;
34072;SDS011;20346;52.702;16.886;2024-03-02T08:52:59;48.60;;;33.10;;
34072;SDS011;20346;52.702;16.886;2024-03-02T08:55:26;51.60;;;34.00;;
34072;SDS011;20346;52.702;16.886;2024-03-02T08:57:51;48.80;;;32.40;;
34072;SDS011;20346;52.702;16.886;2024-03-02T09:00:17;46.50;;;32.40;;
34072;SDS011;20346;52.702;16.886;2024-03-02T09:02:46;46.90;;;33.70;;
34072;SDS011;20346;52.702;16.886;2024-03-02T09:05:12;46.60;;;32.80;;
34072;SDS011;20346;52.702;16.886;2024-03-02T09:07:38;41.70;;;31.00;;
34072;SDS011;20346;52.702;16.886;2024-03-02T09:10:04;41.70;;;30.50;;
34072;SDS011;20346;52.702;16.886;2024-03-02T09:12:41;55.40;;;32.30;;
34072;SDS011;20346;52.702;16.886;2024-03-02T09:15:08;42.40;;;29.20;;
34072;SDS011;20346;52.702;16.886;2024-03-02T09:17:34;38.80;;;27.90;;
34072;SDS011;20346;52.702;16.886;2024-03-02T09:20:00;47.30;;;31.10;;
34072;SDS011;20346;52.702;16.886;2024-03-02T09:22:26;46.90;;;29.80;;
34072;SDS011;20346;52.702;16.886;2024-03-02T09:24:54;56.30;;;32.30;;
34072;SDS011;20346;52.702;16.886;2024-03-02T09:27:23;38.90;;;29.00;;
34072;SDS011;20346;52.702;16.886;2024-03-02T09:29:49;42.50;;;29.10;;
34072;SDS011;20346;52.702;16.886;2024-03-02T09:32:17;37.50;;;27.30;;
34072;SDS011;20346;52.702;16.886;2024-03-02T09:34:52;38.70;;;27.20;;
34072;SDS011;20346;52.702;16.886;2024-03-02T09:37:18;79.70;;;32.20;;
34072;SDS011;20346;52.702;16.886;2024-03-02T09:39:44;137.90;;;34.90;;
34072;SDS011;20346;52.702;16.886;2024-03-02T09:42:10;47.80;;;27.10;;
34072;SDS011;20346;52.702;16.886;2024-03-02T09:44:38;70.70;;;29.20;;
34072;SDS011;20346;52.702;16.886;2024-03-02T09:47:07;56.20;;;26.80;;
34072;SDS011;20346;52.702;16.886;2024-03-02T09:49:33;66.90;;;30.50;;
34072;SDS011;20346;52.702;16.886;2024-03-02T09:52:00;59.30;;;29.10;;
34072;SDS011;20346;52.702;16.886;2024-03-02T09:54:26;41.10;;;26.50;;
34072;SDS011;20346;52.702;16.886;2024-03-02T09:56:54;38.00;;;27.60;;
34072;SDS011;20346;52.702;16.886;2024-03-02T09:59:20;35.10;;;25.50;;
34072;SDS011;20346;52.702;16.886;2024-03-02T10:01:59;41.00;;;26.70;;
34072;SDS011;20346;52.702;16.886;2024-03-02T10:04:48;38.10;;;25.80;;
34072;SDS011;20346;52.702;16.886;2024-03-02T10:07:31;37.20;;;25.60;;
34072;SDS011;20346;52.702;16.886;2024-03-02T10:10:14;204.30;;;40.00;;
34072;SDS011;20346;52.702;16.886;2024-03-02T10:12:41;136.80;;;36.60;;
34072;SDS011;20346;52.702;16.886;2024-03-02T10:15:07;215.40;;;38.80;;
34072;SDS011;20346;52.702;16.886;2024-03-02T10:17:34;224.30;;;40.20;;
34072;SDS011;20346;52.702;16.886;2024-03-02T10:26:20;64.50;;;27.10;;
34072;SDS011;20346;52.702;16.886;2024-03-02T10:28:49;51.40;;;26.30;;
34072;SDS011;20346;52.702;16.886;2024-03-02T10:31:17;29.00;;;22.70;;
34072;SDS011;20346;52.702;16.886;2024-03-02T10:33:43;82.20;;;29.70;;
34072;SDS011;20346;52.702;16.886;2024-03-02T10:36:09;220.70;;;37.40;;
34072;SDS011;20346;52.702;16.886;2024-03-02T10:38:43;117.00;;;30.80;;
34072;SDS011;20346;52.702;16.886;2024-03-02T10:41:16;175.70;;;36.50;;
34072;SDS011;20346;52.702;16.886;2024-03-02T10:43:46;198.20;;;36.30;;
34072;SDS011;20346;52.702;16.886;2024-03-02T10:46:16;300.60;;;39.80;;
34072;SDS011;20346;52.702;16.886;2024-03-02T10:49:05;355.40;;;47.50;;
34072;SDS011;20346;52.702;16.886;2024-03-02T10:51:52;429.00;;;48.50;;
34072;SDS011;20346;52.702;16.886;2024-03-02T10:54:22;226.50;;;38.70;;
34072;SDS011;20346;52.702;16.886;2024-03-02T10:57:10;271.40;;;43.40;;
34072;SDS011;20346;52.702;16.886;2024-03-02T10:59:44;474.70;;;51.80;;
34072;SDS011;20346;52.702;16.886;2024-03-02T11:02:18;458.10;;;53.30;;
34072;SDS011;20346;52.702;16.886;2024-03-02T11:04:50;408.20;;;54.30;;
34072;SDS011;20346;52.702;16.886;2024-03-02T11:07:39;635.40;;;59.60;;
34072;SDS011;20346;52.702;16.886;2024-03-02T11:10:18;588.40;;;53.50;;
34072;SDS011;20346;52.702;16.886;2024-03-02T11:12:47;558.20;;;53.40;;
34072;SDS011;20346;52.702;16.886;2024-03-02T11:15:18;608.10;;;52.50;;
34072;SDS011;20346;52.702;16.886;2024-03-02T11:17:47;461.50;;;49.10;;
34072;SDS011;20346;52.702;16.886;2024-03-02T11:20:15;612.10;;;64.60;;
34072;SDS011;20346;52.702;16.886;2024-03-02T11:22:44;544.60;;;55.30;;
34072;SDS011;20346;52.702;16.886;2024-03-02T11:25:22;350.80;;;44.80;;
34072;SDS011;20346;52.702;16.886;2024-03-02T11:33:05;558.60;;;60.60;;
34072;SDS011;20346;52.702;16.886;2024-03-02T11:35:46;609.70;;;64.00;;
34072;SDS011;20346;52.702;16.886;2024-03-02T11:38:12;411.40;;;57.90;;
34072;SDS011;20346;52.702;16.886;2024-03-02T11:40:39;373.70;;;47.80;;
34072;SDS011;20346;52.702;16.886;2024-03-02T11:43:07;678.80;;;57.40;;
34072;SDS011;20346;52.702;16.886;2024-03-02T11:45:58;261.10;;;41.20;;
34072;SDS011;20346;52.702;16.886;2024-03-02T11:48:25;369.10;;;48.80;;
34072;SDS011;20346;52.702;16.886;2024-03-02T11:50:59;319.20;;;42.80;;
34072;SDS011;20346;52.702;16.886;2024-03-02T11:53:26;482.40;;;55.90;;
34072;SDS011;20346;52.702;16.886;2024-03-02T11:55:59;434.80;;;54.90;;
34072;SDS011;20346;52.702;16.886;2024-03-02T11:58:37;293.00;;;44.80;;
34072;SDS011;20346;52.702;16.886;2024-03-02T12:01:07;289.50;;;45.50;;
34072;SDS011;20346;52.702;16.886;2024-03-02T12:03:35;231.00;;;39.80;;
34072;SDS011;20346;52.702;16.886;2024-03-02T12:06:08;245.80;;;42.80;;
34072;SDS011;20346;52.702;16.886;2024-03-02T12:08:34;129.80;;;32.00;;
34072;SDS011;20346;52.702;16.886;2024-03-02T12:11:01;99.10;;;28.00;;
34072;SDS011;20346;52.702;16.886;2024-03-02T12:13:27;63.50;;;24.60;;
34072;SDS011;20346;52.702;16.886;2024-03-02T12:15:56;81.30;;;27.50;;
34072;SDS011;20346;52.702;16.886;2024-03-02T12:18:23;33.40;;;24.40;;
34072;SDS011;20346;52.702;16.886;2024-03-02T12:20:49;33.70;;;26.20;;
34072;SDS011;20346;52.702;16.886;2024-03-02T12:23:31;33.60;;;26.00;;
34072;SDS011;20346;52.702;16.886;2024-03-02T12:25:57;34.60;;;25.60;;
34072;SDS011;20346;52.702;16.886;2024-03-02T12:28:35;41.30;;;27.60;;
34072;SDS011;20346;52.702;16.886;2024-03-02T12:31:22;34.40;;;23.90;;
34072;SDS011;20346;52.702;16.886;2024-03-02T12:33:46;32.50;;;23.80;;
34072;SDS011;20346;52.702;16.886;2024-03-02T12:36:15;34.70;;;24.70;;
34072;SDS011;20346;52.702;16.886;2024-03-02T12:38:44;34.50;;;23.80;;
34072;SDS011;20346;52.702;16.886;2024-03-02T12:41:10;30.00;;;22.90;;
34072;SDS011;20346;52.702;16.886;2024-03-02T12:43:35;32.80;;;23.90;;
34072;SDS011;20346;52.702;16.886;2024-03-02T12:46:06;30.60;;;24.60;;
34072;SDS011;20346;52.702;16.886;2024-03-02T12:48:31;36.10;;;24.40;;
34072;SDS011;20346;52.702;16.886;2024-03-02T12:50:58;48.70;;;25.10;;
34072;SDS011;20346;52.702;16.886;2024-03-02T12:53:26;31.70;;;23.30;;
34072;SDS011;20346;52.702;16.886;2024-03-02T12:55:52;34.80;;;24.00;;
34072;SDS011;20346;52.702;16.886;2024-03-02T12:58:27;36.90;;;25.60;;
34072;SDS011;20346;52.702;16.886;2024-03-02T13:03:53;48.30;;;24.70;;
34072;SDS011;20346;52.702;16.886;2024-03-02T13:06:24;81.80;;;29.30;;
34072;SDS011;20346;52.702;16.886;2024-03-02T13:08:59;37.60;;;25.20;;
34072;SDS011;20346;52.702;16.886;2024-03-02T13:11:36;37.00;;;23.60;;
34072;SDS011;20346;52.702;16.886;2024-03-02T13:14:02;30.10;;;23.30;;
34072;SDS011;20346;52.702;16.886;2024-03-02T13:16:28;32.50;;;23.20;;
34072;SDS011;20346;52.702;16.886;2024-03-02T13:18:55;33.10;;;24.70;;
34072;SDS011;20346;52.702;16.886;2024-03-02T13:21:21;28.00;;;22.40;;
34072;SDS011;20346;52.702;16.886;2024-03-02T13:23:46;31.70;;;23.10;;
34072;SDS011;20346;52.702;16.886;2024-03-02T13:26:12;31.40;;;23.30;;
34072;SDS011;20346;52.702;16.886;2024-03-02T13:28:38;30.90;;;24.40;;
34072;SDS011;20346;52.702;16.886;2024-03-02T13:31:04;32.90;;;24.30;;
34072;SDS011;20346;52.702;16.886;2024-03-02T13:33:30;33.80;;;25.20;;
34072;SDS011;20346;52.702;16.886;2024-03-02T13:38:23;34.70;;;25.60;;
34072;SDS011;20346;52.702;16.886;2024-03-02T13:40:49;40.20;;;26.70;;
34072;SDS011;20346;52.702;16.886;2024-03-02T13:43:20;32.00;;;26.50;;
34072;SDS011;20346;52.702;16.886;2024-03-02T13:45:47;37.50;;;26.50;;
34072;SDS011;20346;52.702;16.886;2024-03-02T13:48:13;33.40;;;25.30;;
34072;SDS011;20346;52.702;16.886;2024-03-02T13:50:39;36.90;;;27.10;;
34072;SDS011;20346;52.702;16.886;2024-03-02T13:53:06;37.80;;;27.40;;
34072;SDS011;20346;52.702;16.886;2024-03-02T13:55:32;37.20;;;26.30;;
34072;SDS011;20346;52.702;16.886;2024-03-02T13:57:58;34.90;;;26.00;;
34072;SDS011;20346;52.702;16.886;2024-03-02T14:00:24;42.30;;;28.20;;
34072;SDS011;20346;52.702;16.886;2024-03-02T14:02:51;38.80;;;29.40;;
34072;SDS011;20346;52.702;16.886;2024-03-02T14:05:16;40.20;;;28.10;;
34072;SDS011;20346;52.702;16.886;2024-03-02T14:07:44;39.40;;;27.70;;
34072;SDS011;20346;52.702;16.886;2024-03-02T14:10:10;40.50;;;29.30;;
34072;SDS011;20346;52.702;16.886;2024-03-02T14:12:39;37.60;;;27.70;;
34072;SDS011;20346;52.702;16.886;2024-03-02T14:15:06;38.90;;;28.20;;
34072;SDS011;20346;52.702;16.886;2024-03-02T14:17:32;41.00;;;29.40;;
34072;SDS011;20346;52.702;16.886;2024-03-02T14:19:58;39.60;;;27.40;;
34072;SDS011;20346;52.702;16.886;2024-03-02T14:22:46;37.20;;;27.70;;
34072;SDS011;20346;52.702;16.886;2024-03-02T14:25:12;38.70;;;28.30;;
34072;SDS011;20346;52.702;16.886;2024-03-02T14:27:40;40.20;;;27.80;;
34072;SDS011;20346;52.702;16.886;2024-03-02T14:30:06;39.90;;;27.10;;